Time;durP1;ratioP1;P1;durP2;ratioP2;P2;SDS_P1;SDS_P2;PMS_P1;PMS_P2;Temp;Humidity;BMP_temperature;BMP_pressure;BME280_temperature;BME280_humidity;BME280_pressure;Samples;Min_cycle;Max_cycle;Signal;HPM_P1;HPM_P2
2024/01/27 00:01:24;;;;;;;23.35;5.78;;;6.70;99.90;;;;;;5056928;28;20032;-73
2024/01/27 00:03:50;;;;;;;17.45;5.38;;;6.70;99.90;;;;;;5057273;28;20028;-73
2024/01/27 00:06:16;;;;;;;19.00;4.35;;;6.70;99.90;;;;;;5073594;28;20028;-74
2024/01/27 00:08:41;;;;;;;22.55;3.90;;;6.60;99.90;;;;;;5074909;28;20384;-73
2024/01/27 00:11:07;;;;;;;19.42;3.70;;;6.60;99.90;;;;;;5073615;28;20128;-73
2024/01/27 00:13:33;;;;;;;16.33;3.53;;;6.60;99.90;;;;;;5074040;28;20031;-73
2024/01/27 00:15:58;;;;;;;20.95;3.30;;;6.50;99.90;;;;;;5073680;28;20115;-73
2024/01/27 00:18:24;;;;;;;21.08;3.78;;;6.30;99.90;;;;;;5073466;28;20033;-73
2024/01/27 00:20:49;;;;;;;17.75;3.33;;;6.30;99.90;;;;;;5073252;28;20056;-73
2024/01/27 00:23:15;;;;;;;19.45;3.50;;;6.20;99.90;;;;;;5073238;28;20389;-73
2024/01/27 00:25:41;;;;;;;19.95;3.70;;;6.30;99.90;;;;;;5073028;28;20479;-73
2024/01/27 00:28:06;;;;;;;17.20;3.20;;;6.30;99.90;;;;;;5074772;28;20032;-73
2024/01/27 00:30:32;;;;;;;17.17;3.70;;;6.20;99.90;;;;;;5074345;28;20067;-73
2024/01/27 00:32:58;;;;;;;20.42;4.00;;;6.20;99.90;;;;;;5074549;28;20028;-73
2024/01/27 00:35:23;;;;;;;19.15;3.88;;;6.20;99.90;;;;;;5056801;28;20032;-73
2024/01/27 00:37:49;;;;;;;16.67;3.65;;;6.20;99.90;;;;;;5074465;28;20037;-73
2024/01/27 00:40:15;;;;;;;23.17;3.58;;;6.20;99.90;;;;;;5073043;28;20358;-73
2024/01/27 00:42:41;;;;;;;18.00;3.42;;;6.20;99.90;;;;;;5074654;28;20548;-73
2024/01/27 00:45:07;;;;;;;20.98;4.28;;;6.10;99.90;;;;;;5073284;28;20119;-73
2024/01/27 00:47:33;;;;;;;17.73;3.85;;;6.10;99.90;;;;;;5074286;28;20066;-73
2024/01/27 00:49:58;;;;;;;15.63;3.88;;;6.00;99.90;;;;;;5073723;28;20033;-73
2024/01/27 00:52:24;;;;;;;16.30;3.38;;;5.90;99.90;;;;;;5072887;28;20033;-73
2024/01/27 00:54:50;;;;;;;19.08;3.90;;;5.90;99.90;;;;;;5073716;28;20028;-73
2024/01/27 00:57:16;;;;;;;15.00;3.75;;;5.90;99.90;;;;;;5073845;28;20116;-73
2024/01/27 00:59:41;;;;;;;21.65;4.18;;;5.90;99.90;;;;;;5072660;28;20048;-73
2024/01/27 01:02:07;;;;;;;20.05;4.07;;;5.90;99.90;;;;;;5039695;28;20423;-73
2024/01/27 01:04:33;;;;;;;20.10;3.22;;;5.90;99.90;;;;;;5041367;28;20027;-73
2024/01/27 01:06:59;;;;;;;21.00;3.80;;;5.90;99.90;;;;;;5072818;28;20380;-73
2024/01/27 01:09:24;;;;;;;18.30;3.97;;;6.00;99.90;;;;;;5072490;28;20468;-73
2024/01/27 01:11:50;;;;;;;16.30;3.80;;;6.00;99.90;;;;;;5072873;28;20514;-74
2024/01/27 01:14:16;;;;;;;17.67;3.72;;;6.10;99.90;;;;;;5073207;28;20388;-73
2024/01/27 01:16:42;;;;;;;19.83;4.00;;;6.20;99.90;;;;;;5072405;28;20029;-73
2024/01/27 01:19:08;;;;;;;23.73;3.67;;;6.20;99.90;;;;;;5071586;28;20074;-73
2024/01/27 01:21:33;;;;;;;16.40;3.60;;;6.20;99.90;;;;;;5073728;28;20051;-73
2024/01/27 01:23:59;;;;;;;22.33;4.60;;;6.20;99.90;;;;;;5071700;28;20100;-74
2024/01/27 01:26:25;;;;;;;19.77;5.05;;;6.10;99.90;;;;;;5072033;28;20017;-73
2024/01/27 01:28:51;;;;;;;16.45;4.15;;;6.00;99.90;;;;;;5089237;28;20033;-73
2024/01/27 01:31:17;;;;;;;18.70;3.72;;;6.00;99.90;;;;;;5072234;28;20029;-73
2024/01/27 01:33:43;;;;;;;15.38;2.78;;;5.90;99.90;;;;;;5072003;28;20538;-73
2024/01/27 01:36:09;;;;;;;19.15;3.58;;;5.90;99.90;;;;;;5072104;28;20059;-73
2024/01/27 01:38:35;;;;;;;16.55;3.20;;;5.90;99.90;;;;;;5071859;28;20127;-73
2024/01/27 01:41:00;;;;;;;19.63;3.50;;;5.90;99.90;;;;;;5071876;28;20067;-73
2024/01/27 01:43:26;;;;;;;18.45;3.25;;;6.00;99.90;;;;;;5073323;28;20036;-73
2024/01/27 01:45:55;;;;;;;19.70;3.65;;;6.00;99.90;;;;;;5071682;28;20025;-73
2024/01/27 01:48:21;;;;;;;16.00;3.70;;;6.00;99.90;;;;;;5072957;28;20035;-73
2024/01/27 01:50:47;;;;;;;19.23;3.70;;;6.10;99.90;;;;;;5071909;28;20528;-73
2024/01/27 01:53:13;;;;;;;18.35;3.65;;;6.00;99.90;;;;;;5055177;28;20477;-73
2024/01/27 01:55:39;;;;;;;16.77;3.40;;;6.00;99.90;;;;;;5072743;28;20060;-73
2024/01/27 01:58:05;;;;;;;14.60;3.55;;;6.00;99.90;;;;;;5071443;28;20495;-73
2024/01/27 02:00:32;;;;;;;16.67;3.50;;;6.10;99.90;;;;;;5072672;28;20025;-73
2024/01/27 02:02:58;;;;;;;22.00;3.42;;;6.00;99.90;;;;;;5071901;28;20052;-73
2024/01/27 02:05:24;;;;;;;14.18;3.28;;;6.00;99.90;;;;;;5073298;28;20516;-73
2024/01/27 02:07:50;;;;;;;15.90;3.45;;;6.00;99.90;;;;;;5072152;28;20024;-73
2024/01/27 02:10:17;;;;;;;16.50;2.80;;;6.00;99.90;;;;;;5072257;28;20042;-74
2024/01/27 02:12:46;;;;;;;19.00;3.17;;;6.00;99.90;;;;;;5073058;28;20029;-73
2024/01/27 02:15:13;;;;;;;18.02;3.30;;;6.10;99.90;;;;;;5072051;28;20044;-74
2024/01/27 02:17:40;;;;;;;13.23;3.45;;;6.00;99.90;;;;;;5071946;28;20473;-73
2024/01/27 02:20:09;;;;;;;14.73;3.25;;;6.00;99.90;;;;;;5072809;28;20052;-73
2024/01/27 02:22:35;;;;;;;19.73;3.95;;;6.00;99.90;;;;;;5055577;28;20028;-73
2024/01/27 02:25:01;;;;;;;16.58;3.60;;;6.00;99.90;;;;;;5072747;28;20029;-74
2024/01/27 02:27:27;;;;;;;18.90;3.67;;;6.00;99.90;;;;;;5072713;28;20028;-73
2024/01/27 02:29:52;;;;;;;22.15;4.30;;;6.00;99.90;;;;;;5072414;28;20079;-74
2024/01/27 02:32:18;;;;;;;17.13;3.78;;;6.00;99.90;;;;;;5071241;28;20064;-73
2024/01/27 02:34:44;;;;;;;17.98;2.90;;;5.90;99.90;;;;;;5072449;28;20488;-73
2024/01/27 02:37:10;;;;;;;19.92;3.13;;;5.90;99.90;;;;;;5072741;28;20475;-73
2024/01/27 02:39:36;;;;;;;15.77;2.90;;;6.00;99.90;;;;;;5072593;28;20075;-73
2024/01/27 02:42:01;;;;;;;16.92;3.17;;;6.00;99.90;;;;;;5071314;28;20060;-73
2024/01/27 02:44:27;;;;;;;11.88;2.80;;;6.00;99.90;;;;;;5054495;28;20034;-73
2024/01/27 02:46:53;;;;;;;17.15;3.08;;;6.00;99.90;;;;;;5088243;28;20033;-73
2024/01/27 02:49:18;;;;;;;13.60;2.95;;;6.00;99.90;;;;;;5071504;28;20526;-73
2024/01/27 02:51:44;;;;;;;16.05;2.92;;;6.00;99.90;;;;;;5053877;28;20033;-74
2024/01/27 02:54:10;;;;;;;14.55;3.00;;;6.00;99.90;;;;;;5054313;28;20031;-73
2024/01/27 02:56:36;;;;;;;14.57;3.22;;;6.10;99.90;;;;;;5071352;28;20074;-73
2024/01/27 02:59:01;;;;;;;19.42;3.55;;;6.10;99.90;;;;;;5054345;28;20493;-73
2024/01/27 03:01:27;;;;;;;15.60;3.10;;;6.10;99.90;;;;;;5071397;28;20427;-73
2024/01/27 03:03:52;;;;;;;20.17;3.45;;;6.10;99.90;;;;;;5071110;28;20472;-74
2024/01/27 03:06:18;;;;;;;14.43;3.20;;;6.10;99.90;;;;;;5072290;28;20036;-74
2024/01/27 03:08:44;;;;;;;17.33;3.10;;;6.10;99.90;;;;;;5070803;28;20477;-73
2024/01/27 03:11:09;;;;;;;15.60;3.25;;;6.00;99.90;;;;;;5071083;28;20120;-73
2024/01/27 03:13:35;;;;;;;19.45;2.80;;;5.90;99.90;;;;;;5071352;28;20034;-72
2024/01/27 03:16:01;;;;;;;13.77;2.58;;;5.90;99.90;;;;;;5072448;28;20025;-73
2024/01/27 03:18:26;;;;;;;14.35;2.58;;;5.80;99.90;;;;;;5072156;28;20029;-73
2024/01/27 03:20:52;;;;;;;21.77;3.47;;;5.90;99.90;;;;;;5053865;28;20049;-73
2024/01/27 03:23:18;;;;;;;15.27;3.53;;;5.90;99.90;;;;;;5072347;28;20028;-73
2024/01/27 03:25:43;;;;;;;17.85;3.33;;;5.90;99.90;;;;;;5053640;28;20110;-73
2024/01/27 03:28:09;;;;;;;13.27;3.45;;;5.90;99.90;;;;;;5072409;28;20060;-73
2024/01/27 03:30:34;;;;;;;18.15;3.67;;;5.80;99.90;;;;;;5072065;28;20107;-73
2024/01/27 03:33:00;;;;;;;16.75;3.28;;;5.80;99.90;;;;;;5071936;28;20033;-72
2024/01/27 03:35:26;;;;;;;14.68;3.03;;;5.70;99.90;;;;;;5054068;28;20033;-72
2024/01/27 03:37:51;;;;;;;18.65;2.97;;;5.80;99.90;;;;;;5071205;28;20062;-73
2024/01/27 03:40:18;;;;;;;18.98;3.30;;;5.90;99.90;;;;;;5087775;28;20029;-73
2024/01/27 03:42:43;;;;;;;13.43;2.95;;;5.90;99.90;;;;;;5072770;28;20048;-73
2024/01/27 03:45:09;;;;;;;12.95;2.95;;;5.90;99.90;;;;;;5075727;28;20120;-73
2024/01/27 03:47:35;;;;;;;18.05;3.08;;;5.90;99.90;;;;;;5057604;28;20139;-73
2024/01/27 03:50:00;;;;;;;12.95;3.00;;;6.00;99.90;;;;;;5075267;28;20032;-73
2024/01/27 03:52:26;;;;;;;11.43;2.80;;;6.00;99.90;;;;;;5090733;28;20032;-73
2024/01/27 03:54:52;;;;;;;17.08;3.05;;;6.00;99.90;;;;;;5074757;28;20033;-73
2024/01/27 03:57:17;;;;;;;17.30;3.17;;;6.00;99.90;;;;;;5074280;28;20032;-73
2024/01/27 03:59:43;;;;;;;15.18;3.00;;;6.00;99.90;;;;;;5075096;28;20041;-73
2024/01/27 04:02:08;;;;;;;15.77;3.08;;;5.90;99.90;;;;;;5075228;28;20036;-73
2024/01/27 04:04:34;;;;;;;18.73;3.70;;;5.90;99.90;;;;;;5074080;28;20033;-73
2024/01/27 04:07:01;;;;;;;18.63;3.13;;;6.00;99.90;;;;;;5073738;28;20477;-73
2024/01/27 04:09:27;;;;;;;10.65;3.55;;;6.00;99.90;;;;;;5073853;28;20029;-73
2024/01/27 04:11:53;;;;;;;15.38;2.75;;;6.00;99.90;;;;;;5075440;28;20476;-73
2024/01/27 04:14:18;;;;;;;10.88;2.80;;;6.00;99.90;;;;;;5074463;28;20538;-73
2024/01/27 04:16:44;;;;;;;16.00;3.58;;;6.10;99.90;;;;;;5057150;28;20035;-73
2024/01/27 04:19:10;;;;;;;16.50;2.70;;;6.10;99.90;;;;;;5073766;28;20043;-73
2024/01/27 04:21:35;;;;;;;19.52;2.88;;;6.20;99.90;;;;;;5072868;28;20110;-73
2024/01/27 04:24:01;;;;;;;20.35;3.17;;;6.20;99.90;;;;;;5074871;28;20028;-73
2024/01/27 04:26:27;;;;;;;15.25;3.38;;;6.30;99.90;;;;;;5074549;28;20035;-73
2024/01/27 04:28:53;;;;;;;15.60;3.10;;;6.30;99.90;;;;;;5074491;28;20105;-73
2024/01/27 04:31:18;;;;;;;16.05;3.28;;;6.20;99.90;;;;;;5073506;28;20086;-73
2024/01/27 04:33:44;;;;;;;17.02;3.33;;;6.30;99.90;;;;;;5073336;28;20033;-73
2024/01/27 04:36:10;;;;;;;12.55;2.85;;;6.30;99.90;;;;;;5056450;28;20056;-73
2024/01/27 04:38:36;;;;;;;17.83;3.10;;;6.30;99.90;;;;;;5056811;28;20075;-73
2024/01/27 04:41:02;;;;;;;18.10;2.67;;;6.30;99.90;;;;;;5073917;28;20048;-73
2024/01/27 04:43:28;;;;;;;13.35;2.88;;;6.30;99.90;;;;;;5075758;28;20353;-73
2024/01/27 04:45:54;;;;;;;13.20;2.75;;;6.30;99.90;;;;;;5075037;28;20476;-73
2024/01/27 04:48:20;;;;;;;13.40;3.00;;;6.40;99.90;;;;;;5073392;28;20036;-72
2024/01/27 04:50:46;;;;;;;14.93;4.00;;;6.40;99.90;;;;;;5074898;28;20357;-71
2024/01/27 04:53:12;;;;;;;18.40;4.13;;;6.40;99.90;;;;;;5073629;28;20036;-73
2024/01/27 04:55:38;;;;;;;21.02;4.05;;;6.40;99.90;;;;;;5068483;28;20024;-73
2024/01/27 04:58:04;;;;;;;12.23;3.40;;;6.30;99.90;;;;;;5052830;28;20021;-74
2024/01/27 05:00:30;;;;;;;21.40;4.50;;;6.30;99.90;;;;;;5065856;28;20056;-73
2024/01/27 05:02:57;;;;;;;16.20;3.72;;;6.30;99.90;;;;;;5072973;28;20449;-73
2024/01/27 05:05:23;;;;;;;14.85;4.03;;;6.20;99.90;;;;;;5072652;28;20036;-73
2024/01/27 05:07:49;;;;;;;16.67;3.90;;;6.20;99.90;;;;;;5072567;28;20431;-73
2024/01/27 05:10:17;;;;;;;22.30;4.35;;;6.20;99.90;;;;;;5056154;28;20136;-73
2024/01/27 05:12:43;;;;;;;15.80;4.07;;;6.10;99.90;;;;;;5073746;28;20033;-73
2024/01/27 05:15:10;;;;;;;17.67;5.28;;;6.00;99.90;;;;;;5072836;28;20058;-72
2024/01/27 05:17:36;;;;;;;16.60;4.80;;;6.00;99.90;;;;;;5073712;28;20063;-72
2024/01/27 05:20:04;;;;;;;15.98;4.43;;;5.80;99.90;;;;;;5073328;28;20068;-73
2024/01/27 05:22:30;;;;;;;22.48;5.07;;;5.80;99.90;;;;;;5073672;28;20449;-73
2024/01/27 05:24:55;;;;;;;20.92;4.82;;;5.70;99.90;;;;;;5072001;28;20063;-73
2024/01/27 05:27:21;;;;;;;17.15;5.28;;;5.60;99.90;;;;;;5073301;28;20056;-73
2024/01/27 05:29:47;;;;;;;17.75;4.75;;;5.60;99.90;;;;;;5073173;28;20131;-73
2024/01/27 05:32:12;;;;;;;18.83;5.60;;;5.50;99.90;;;;;;5072231;28;20028;-73
2024/01/27 05:34:38;;;;;;;21.25;4.97;;;5.40;99.90;;;;;;5072068;28;20033;-73
2024/01/27 05:37:04;;;;;;;22.23;5.30;;;5.40;99.90;;;;;;5073459;28;20102;-73
2024/01/27 05:39:29;;;;;;;17.17;6.13;;;5.30;99.90;;;;;;5073092;28;20060;-73
2024/01/27 05:41:55;;;;;;;22.48;6.20;;;5.30;99.90;;;;;;5073072;28;20111;-73
2024/01/27 05:44:21;;;;;;;17.58;5.82;;;5.30;99.90;;;;;;5073275;28;20413;-73
2024/01/27 05:46:46;;;;;;;19.55;5.43;;;5.20;99.90;;;;;;5072078;28;20028;-73
2024/01/27 05:49:12;;;;;;;17.20;5.70;;;5.20;99.90;;;;;;5073085;28;20135;-73
2024/01/27 05:51:38;;;;;;;22.48;6.07;;;5.20;99.90;;;;;;5071837;28;20036;-73
2024/01/27 05:54:03;;;;;;;21.65;5.95;;;5.20;99.90;;;;;;5071619;28;20037;-72
2024/01/27 05:56:29;;;;;;;27.30;5.90;;;5.10;99.90;;;;;;5054702;28;20032;-73
2024/01/27 05:58:55;;;;;;;20.67;6.57;;;5.10;99.90;;;;;;5071698;28;20404;-73
2024/01/27 06:01:20;;;;;;;22.35;5.57;;;5.20;99.90;;;;;;5071649;28;20178;-73
2024/01/27 06:03:46;;;;;;;21.67;6.15;;;5.20;99.90;;;;;;5073180;28;20041;-73
2024/01/27 06:06:12;;;;;;;24.08;6.07;;;5.10;99.90;;;;;;5072463;28;20025;-73
2024/01/27 06:08:38;;;;;;;21.38;6.55;;;5.20;99.90;;;;;;5055075;28;20435;-73
2024/01/27 06:11:04;;;;;;;19.35;6.68;;;5.20;99.90;;;;;;5071596;28;20028;-73
2024/01/27 06:13:30;;;;;;;24.02;6.32;;;5.10;99.90;;;;;;5071991;28;20115;-73
2024/01/27 06:15:55;;;;;;;21.92;6.40;;;5.10;99.90;;;;;;5072678;28;20033;-73
2024/01/27 06:18:21;;;;;;;26.75;7.25;;;5.10;99.90;;;;;;5071200;28;20110;-73
2024/01/27 06:20:47;;;;;;;21.63;5.20;;;5.10;99.90;;;;;;5070959;28;20075;-73
2024/01/27 06:23:13;;;;;;;20.05;5.68;;;5.10;99.90;;;;;;5071695;28;20029;-73
2024/01/27 06:25:38;;;;;;;18.95;6.40;;;5.20;99.90;;;;;;5060425;28;20041;-73
2024/01/27 06:28:04;;;;;;;21.50;6.55;;;5.20;99.90;;;;;;5052978;28;20381;-73
2024/01/27 06:30:30;;;;;;;19.17;6.22;;;5.10;99.90;;;;;;5053293;28;20412;-72
2024/01/27 06:32:55;;;;;;;19.90;6.20;;;5.20;99.90;;;;;;5052723;28;20037;-73
2024/01/27 06:35:21;;;;;;;16.50;5.97;;;5.20;99.90;;;;;;5051412;28;20026;-73
2024/01/27 06:37:47;;;;;;;21.23;5.88;;;5.20;99.90;;;;;;5052456;28;20409;-72
2024/01/27 06:40:13;;;;;;;21.85;6.50;;;5.20;99.90;;;;;;5034622;28;20084;-73
2024/01/27 06:42:39;;;;;;;24.25;6.72;;;5.20;99.90;;;;;;5052411;28;20068;-72
2024/01/27 06:45:05;;;;;;;26.55;7.40;;;5.20;99.90;;;;;;5052624;28;20079;-73
2024/01/27 06:47:31;;;;;;;19.00;5.88;;;5.20;99.90;;;;;;5051337;28;20044;-73
2024/01/27 06:49:56;;;;;;;18.83;6.13;;;5.30;99.90;;;;;;5051015;28;20481;-73
2024/01/27 06:52:22;;;;;;;18.90;5.68;;;5.30;99.90;;;;;;5052390;28;20414;-72
2024/01/27 06:54:47;;;;;;;17.92;5.95;;;5.40;99.90;;;;;;5052002;28;20032;-73
2024/01/27 06:57:21;;;;;;;17.65;5.80;;;5.50;99.90;;;;;;5052296;28;20025;-75
2024/01/27 06:59:55;;;;;;;14.52;5.70;;;5.50;99.90;;;;;;5034573;28;20037;-75
2024/01/27 07:02:26;;;;;;;21.35;6.53;;;5.60;99.90;;;;;;5035113;28;20052;-72
2024/01/27 07:04:52;;;;;;;14.98;5.53;;;5.60;99.90;;;;;;5052153;28;20024;-72
2024/01/27 07:07:20;;;;;;;15.85;6.32;;;5.70;99.90;;;;;;5052435;28;20037;-72
2024/01/27 07:09:46;;;;;;;17.33;6.00;;;5.70;99.90;;;;;;5052046;28;20029;-73
2024/01/27 07:12:12;;;;;;;19.75;6.40;;;5.70;99.90;;;;;;5052694;28;20032;-73
2024/01/27 07:14:37;;;;;;;19.83;6.35;;;5.80;99.90;;;;;;5051150;28;20033;-73
2024/01/27 07:17:04;;;;;;;20.80;6.63;;;5.70;99.90;;;;;;5052743;28;20120;-73
2024/01/27 07:19:30;;;;;;;18.60;6.30;;;5.70;99.90;;;;;;5040738;28;20149;-73
2024/01/27 07:21:55;;;;;;;19.35;6.35;;;5.70;99.90;;;;;;5039910;28;20076;-73
2024/01/27 07:24:21;;;;;;;20.20;6.82;;;5.70;99.90;;;;;;5056886;28;20120;-73
2024/01/27 07:26:46;;;;;;;17.75;6.65;;;5.80;99.90;;;;;;5055527;28;20045;-76
2024/01/27 07:29:12;;;;;;;18.08;7.60;;;5.70;99.90;;;;;;5056117;28;20037;-77
2024/01/27 07:31:38;;;;;;;18.33;6.63;;;5.70;99.90;;;;;;5037857;28;20029;-76
2024/01/27 07:34:06;;;;;;;22.83;6.78;;;5.60;99.90;;;;;;5038123;28;20037;-76
2024/01/27 07:36:32;;;;;;;17.52;6.40;;;5.60;99.90;;;;;;5055773;28;20033;-76
2024/01/27 07:38:58;;;;;;;23.85;7.20;;;5.50;99.90;;;;;;5044655;28;20064;-80
2024/01/27 07:41:24;;;;;;;16.70;6.95;;;5.50;99.90;;;;;;5055569;28;20033;-80
2024/01/27 07:43:49;;;;;;;27.35;7.28;;;5.40;99.90;;;;;;5046531;28;20037;-79
2024/01/27 07:46:15;;;;;;;22.58;6.50;;;5.40;99.90;;;;;;5057215;28;20032;-79
2024/01/27 07:48:41;;;;;;;21.20;7.32;;;5.40;99.90;;;;;;5075696;28;20042;-77
2024/01/27 07:51:06;;;;;;;15.95;6.50;;;5.40;99.90;;;;;;5075454;28;20373;-75
2024/01/27 07:53:33;;;;;;;24.85;5.50;;;5.30;99.90;;;;;;5073808;28;20082;-75
2024/01/27 07:55:59;;;;;;;17.30;5.90;;;5.40;99.90;;;;;;5075038;28;20051;-74
2024/01/27 07:58:25;;;;;;;24.20;7.45;;;5.60;99.90;;;;;;5073675;28;20068;-74
2024/01/27 08:00:51;;;;;;;17.83;6.57;;;5.70;99.90;;;;;;5075115;28;20095;-75
2024/01/27 08:03:17;;;;;;;16.70;6.68;;;5.70;99.90;;;;;;5056814;28;20461;-74
2024/01/27 08:05:42;;;;;;;22.15;6.60;;;5.70;99.90;;;;;;5071346;28;20527;-75
2024/01/27 08:08:08;;;;;;;21.50;6.72;;;5.80;99.90;;;;;;5074623;28;20608;-74
2024/01/27 08:10:34;;;;;;;16.95;6.65;;;5.80;99.90;;;;;;5074261;28;20029;-74
2024/01/27 08:12:59;;;;;;;27.50;7.57;;;5.80;99.90;;;;;;5072983;28;20078;-74
2024/01/27 08:15:25;;;;;;;18.25;6.38;;;5.90;99.90;;;;;;5074498;28;20029;-75
2024/01/27 08:17:51;;;;;;;21.77;6.53;;;5.90;99.90;;;;;;5074554;28;20358;-74
2024/01/27 08:20:16;;;;;;;16.55;6.30;;;6.00;99.90;;;;;;5073281;28;20378;-74
2024/01/27 08:22:42;;;;;;;18.67;6.57;;;6.10;99.90;;;;;;5074518;28;20477;-74
2024/01/27 08:25:08;;;;;;;21.63;7.45;;;6.10;99.90;;;;;;5074080;28;20119;-75
2024/01/27 08:27:33;;;;;;;22.35;7.10;;;6.20;99.90;;;;;;5072370;28;20039;-75
2024/01/27 08:29:59;;;;;;;21.67;6.60;;;6.20;99.90;;;;;;5074292;28;20425;-74
2024/01/27 08:32:25;;;;;;;21.95;7.95;;;6.30;99.90;;;;;;5074782;28;20025;-74
2024/01/27 08:34:50;;;;;;;21.27;6.72;;;6.30;99.90;;;;;;5074771;28;20032;-74
2024/01/27 08:37:19;;;;;;;18.42;7.18;;;6.30;99.90;;;;;;5094402;28;20551;-74
2024/01/27 08:39:44;;;;;;;24.58;7.82;;;6.40;99.90;;;;;;5074208;28;20032;-74
2024/01/27 08:42:11;;;;;;;25.55;7.57;;;6.40;99.90;;;;;;5074241;28;20047;-74
2024/01/27 08:44:37;;;;;;;25.20;7.65;;;6.40;99.90;;;;;;5072508;28;20102;-77
2024/01/27 08:47:03;;;;;;;22.67;7.18;;;6.50;99.90;;;;;;5059635;28;20094;-77
2024/01/27 08:49:28;;;;;;;22.15;7.13;;;6.60;99.90;;;;;;5077009;28;20040;-76
2024/01/27 08:51:55;;;;;;;20.88;7.03;;;6.50;99.90;;;;;;5047447;28;20056;-76
2024/01/27 08:54:21;;;;;;;21.73;7.40;;;6.60;99.90;;;;;;5072543;28;20024;-77
2024/01/27 08:56:47;;;;;;;18.27;6.45;;;6.50;99.90;;;;;;5073115;28;20035;-76
2024/01/27 08:59:12;;;;;;;18.30;7.05;;;6.60;99.90;;;;;;5072480;28;20413;-77
2024/01/27 09:01:38;;;;;;;14.02;6.53;;;6.60;99.90;;;;;;5072722;28;20164;-77
2024/01/27 09:04:04;;;;;;;21.40;6.85;;;6.60;99.90;;;;;;5072776;28;20058;-77
2024/01/27 09:06:29;;;;;;;20.63;5.97;;;6.80;99.90;;;;;;5071770;28;20439;-77
2024/01/27 09:08:55;;;;;;;18.75;7.22;;;6.90;99.90;;;;;;5071222;28;20390;-76
2024/01/27 09:11:27;;;;;;;18.15;6.93;;;7.00;99.90;;;;;;5072782;28;20396;-77
2024/01/27 09:13:53;;;;;;;21.40;7.18;;;7.10;99.90;;;;;;5056544;28;20476;-77
2024/01/27 09:16:19;;;;;;;18.00;6.50;;;7.20;99.90;;;;;;5074118;28;20039;-77
2024/01/27 09:18:45;;;;;;;20.27;6.38;;;7.20;99.90;;;;;;5072755;28;20112;-77
2024/01/27 09:21:11;;;;;;;20.88;6.80;;;7.30;99.90;;;;;;5073091;28;20053;-77
2024/01/27 09:23:37;;;;;;;21.95;7.30;;;7.40;99.90;;;;;;5079783;28;20495;-75
2024/01/27 09:26:04;;;;;;;17.55;6.35;;;7.40;99.90;;;;;;5077714;28;20040;-77
2024/01/27 09:28:29;;;;;;;19.10;7.18;;;7.40;99.90;;;;;;5076990;28;20078;-76
2024/01/27 09:30:55;;;;;;;18.60;6.40;;;7.40;99.90;;;;;;5077901;28;21424;-76
2024/01/27 09:33:22;;;;;;;17.88;6.40;;;7.40;99.90;;;;;;5075346;28;20507;-75
2024/01/27 09:35:49;;;;;;;19.48;6.97;;;7.40;99.90;;;;;;5071315;28;20032;-77
2024/01/27 09:38:14;;;;;;;16.65;7.57;;;7.40;99.90;;;;;;5054600;28;20032;-78
2024/01/27 09:40:41;;;;;;;18.77;7.70;;;7.30;99.90;;;;;;5074039;28;20450;-79
2024/01/27 09:43:08;;;;;;;18.10;7.93;;;7.30;99.90;;;;;;5099886;28;20047;-80
2024/01/27 09:45:36;;;;;;;24.65;6.90;;;7.30;99.90;;;;;;5059625;28;20445;-78
2024/01/27 09:48:05;;;;;;;16.90;6.65;;;7.30;99.90;;;;;;5073728;28;20036;-80
2024/01/27 09:51:34;;;;;;;15.40;6.25;;;7.30;99.90;;;;;;5084656;28;20115;-81
2024/01/27 09:53:27;;;;;;;22.08;7.45;;;7.40;99.90;;;;;;5056906;28;20040;-80
2024/01/27 09:55:53;;;;;;;17.00;6.70;;;7.50;99.90;;;;;;5073400;28;20037;-81
2024/01/27 09:58:19;;;;;;;18.30;7.30;;;7.60;99.90;;;;;;5058404;28;20041;-81
2024/01/27 10:00:45;;;;;;;17.63;7.32;;;7.70;99.90;;;;;;5075400;28;20036;-82
2024/01/27 10:03:11;;;;;;;23.27;7.60;;;7.70;99.90;;;;;;5076287;28;20056;-81
2024/01/27 10:05:38;;;;;;;20.25;7.35;;;7.70;99.90;;;;;;5077319;28;20458;-80
2024/01/27 10:08:08;;;;;;;18.48;7.15;;;7.70;99.90;;;;;;5056427;28;20056;-81
2024/01/27 10:10:34;;;;;;;18.70;6.88;;;7.70;99.90;;;;;;5076913;28;20050;-81
2024/01/27 10:13:03;;;;;;;21.40;7.53;;;7.70;99.90;;;;;;5075445;28;20090;-79
2024/01/27 10:15:29;;;;;;;18.55;7.60;;;7.70;99.90;;;;;;5072690;28;20485;-79
2024/01/27 10:18:07;;;;;;;24.90;7.03;;;7.80;99.90;;;;;;5074637;28;20064;-80
2024/01/27 10:20:34;;;;;;;24.38;7.82;;;7.80;99.90;;;;;;5074065;28;20056;-75
2024/01/27 10:23:26;;;;;;;19.05;7.82;;;7.90;99.90;;;;;;5070657;28;20158;-80
2024/01/27 10:25:52;;;;;;;18.52;7.53;;;8.00;99.90;;;;;;5069973;28;20751;-79
2024/01/27 10:28:18;;;;;;;20.40;7.65;;;8.00;99.90;;;;;;5070865;28;20075;-78
2024/01/27 10:30:44;;;;;;;25.13;7.53;;;8.10;99.90;;;;;;5070228;28;20152;-78
2024/01/27 10:33:13;;;;;;;17.15;6.35;;;8.10;99.90;;;;;;5071468;28;20029;-79
2024/01/27 10:35:45;;;;;;;20.60;7.35;;;8.30;99.90;;;;;;5078154;28;20035;-78
2024/01/27 10:38:10;;;;;;;22.63;7.55;;;8.30;99.90;;;;;;5072253;28;20078;-77
2024/01/27 10:40:39;;;;;;;20.25;7.15;;;8.30;99.90;;;;;;5071885;28;20036;-78
2024/01/27 10:43:07;;;;;;;21.52;7.78;;;8.40;99.90;;;;;;5070363;28;20400;-76
2024/01/27 10:45:37;;;;;;;23.00;7.28;;;8.40;99.90;;;;;;5071484;28;20071;-78
2024/01/27 10:48:04;;;;;;;26.92;6.90;;;8.40;99.90;;;;;;5076760;28;20346;-76
2024/01/27 10:50:30;;;;;;;18.98;6.85;;;8.40;99.90;;;;;;5071735;28;20134;-76
2024/01/27 10:53:03;;;;;;;19.42;6.47;;;8.40;99.90;;;;;;5077037;28;20047;-75
2024/01/27 10:55:29;;;;;;;17.88;6.78;;;8.40;99.90;;;;;;5074481;28;20039;-77
2024/01/27 10:57:58;;;;;;;19.63;6.65;;;8.40;99.90;;;;;;5074724;28;20111;-78
2024/01/27 11:00:26;;;;;;;19.77;6.13;;;8.50;99.90;;;;;;5075134;28;20024;-76
2024/01/27 11:02:54;;;;;;;20.88;6.57;;;8.50;99.90;;;;;;5081808;28;20067;-77
2024/01/27 11:05:21;;;;;;;23.52;8.02;;;8.50;99.90;;;;;;5075270;28;20115;-77
2024/01/27 11:07:47;;;;;;;20.42;6.43;;;8.50;99.90;;;;;;5075521;28;20055;-76
2024/01/27 11:10:12;;;;;;;20.25;7.07;;;8.50;99.90;;;;;;5075442;28;20432;-77
2024/01/27 11:12:39;;;;;;;21.67;6.82;;;8.60;99.90;;;;;;5069526;28;20037;-76
2024/01/27 11:15:06;;;;;;;17.98;6.70;;;8.50;99.90;;;;;;5079277;28;20099;-78
2024/01/27 11:17:40;;;;;;;22.90;6.65;;;8.60;99.90;;;;;;5071640;28;20043;-76
2024/01/27 11:20:11;;;;;;;19.30;6.78;;;8.60;99.90;;;;;;5055752;28;20068;-75
2024/01/27 11:22:37;;;;;;;19.90;6.30;;;8.70;99.90;;;;;;5076574;28;20354;-76
2024/01/27 11:25:12;;;;;;;21.75;6.40;;;8.70;99.90;;;;;;5073625;28;20032;-74
2024/01/27 11:27:39;;;;;;;19.40;6.57;;;8.80;99.90;;;;;;5075846;28;20099;-75
2024/01/27 11:30:07;;;;;;;22.38;7.47;;;8.80;99.90;;;;;;5076099;28;20037;-75
2024/01/27 11:32:33;;;;;;;20.42;7.10;;;8.90;99.90;;;;;;5075977;28;20082;-75
2024/01/27 11:35:02;;;;;;;19.23;6.75;;;9.00;99.90;;;;;;5076036;28;20516;-75
2024/01/27 11:37:31;;;;;;;21.05;6.38;;;9.10;99.90;;;;;;5075611;28;20020;-74
2024/01/27 11:40:07;;;;;;;17.33;5.75;;;9.20;99.90;;;;;;5074358;28;20051;-74
2024/01/27 11:42:32;;;;;;;23.05;6.22;;;9.30;99.90;;;;;;5074474;28;20028;-75
2024/01/27 11:44:58;;;;;;;26.48;6.72;;;9.40;99.90;;;;;;5075123;28;20457;-74
2024/01/27 11:47:26;;;;;;;16.75;6.15;;;9.40;99.80;;;;;;5074954;28;20484;-74
2024/01/27 11:49:56;;;;;;;22.48;7.28;;;9.40;99.50;;;;;;5075112;28;20146;-74
2024/01/27 11:52:23;;;;;;;16.15;6.35;;;9.40;99.40;;;;;;5073173;28;20040;-74
2024/01/27 11:55:00;;;;;;;19.58;6.55;;;9.50;99.60;;;;;;5074200;28;20139;-74
2024/01/27 11:57:26;;;;;;;17.60;5.80;;;9.60;99.80;;;;;;5073397;28;20418;-74
2024/01/27 11:59:53;;;;;;;16.83;5.65;;;9.70;99.60;;;;;;5074014;28;20047;-77
2024/01/27 12:02:18;;;;;;;20.65;6.05;;;9.80;99.30;;;;;;5039897;28;20044;-75
2024/01/27 12:04:44;;;;;;;17.45;5.68;;;9.70;98.70;;;;;;5075050;28;20029;-75
2024/01/27 12:07:10;;;;;;;20.23;5.53;;;9.70;98.70;;;;;;5074976;28;20431;-75
2024/01/27 12:09:36;;;;;;;13.55;4.78;;;9.80;98.60;;;;;;5074709;28;20036;-75
2024/01/27 12:12:03;;;;;;;23.10;5.70;;;9.80;98.30;;;;;;5056929;28;20025;-77
2024/01/27 12:14:46;;;;;;;20.23;5.00;;;9.70;98.00;;;;;;5073624;28;20028;-77
2024/01/27 12:17:12;;;;;;;19.97;5.63;;;9.70;97.80;;;;;;5075450;28;20056;-75
2024/01/27 12:19:38;;;;;;;14.93;5.32;;;9.60;97.60;;;;;;5074669;28;20028;-75
2024/01/27 12:22:05;;;;;;;16.70;4.80;;;9.60;97.80;;;;;;5074272;28;20041;-75
2024/01/27 12:24:32;;;;;;;16.63;5.25;;;9.60;97.70;;;;;;5073497;28;20033;-75
2024/01/27 12:26:59;;;;;;;16.88;5.53;;;9.70;97.90;;;;;;5073583;28;20024;-74
2024/01/27 12:29:24;;;;;;;20.27;5.10;;;9.80;98.00;;;;;;5074805;28;20020;-74
2024/01/27 12:31:51;;;;;;;22.63;5.40;;;9.90;98.00;;;;;;5076562;28;20036;-75
2024/01/27 12:34:18;;;;;;;18.17;4.90;;;9.90;97.80;;;;;;5078581;28;20148;-75
2024/01/27 12:36:44;;;;;;;17.67;5.10;;;9.90;97.50;;;;;;5079585;28;20025;-74
2024/01/27 12:39:10;;;;;;;16.67;5.07;;;9.90;97.00;;;;;;5077757;28;20491;-75
2024/01/27 12:41:36;;;;;;;15.48;4.80;;;9.90;97.00;;;;;;5074912;28;20450;-74
2024/01/27 12:44:02;;;;;;;17.77;4.63;;;9.90;97.20;;;;;;5074993;28;20102;-75